Priddy, Texas
Current Conditions -  °F | °C
As of 4:15 AM on Monday 26 Jan 2015 (Local Time) from KMKN Reporting Station
Clear Clear  
Wind Chill: 44°   Ceiling: Unl
Heat Index: 44°   Visibility: 10mi
Dew Point: 31°   Wind: 3mph
Humidity: 62%   Direction: 350°N
Pressure: 30.21"   Gusts: NA
Location:  31.68°N, 98.51°W
Report Text: KMKN 261015Z AUTO 35003KT 10SM CLR 07/00 A3021 RMK AO2 T00651004
Loading
Personal Weather Stations






























Interactive Weather Map New forecast layout! Learn more

10-Day Weather Forecast

Advertisements
Track Severe Weather on mobile